createdAt,value
2023-01-11T00:01:15.117Z,5.90
2023-01-11T00:03:44.327Z,5.90
2023-01-11T00:06:17.246Z,5.90
2023-01-11T00:08:46.835Z,6.00
2023-01-11T00:11:15.799Z,6.00
2023-01-11T00:13:45.220Z,6.00
2023-01-11T00:16:12.543Z,6.00
2023-01-11T00:18:41.107Z,6.00
2023-01-11T00:21:08.470Z,6.00
2023-01-11T00:23:38.709Z,6.00
2023-01-11T00:26:11.355Z,6.00
2023-01-11T00:28:40.393Z,6.00
2023-01-11T00:31:10.827Z,6.00
2023-01-11T00:33:38.020Z,5.90
2023-01-11T00:36:05.058Z,5.90
2023-01-11T00:38:44.011Z,5.90
2023-01-11T00:41:34.559Z,5.90
2023-01-11T00:44:20.626Z,5.80
2023-01-11T00:47:08.564Z,5.80
2023-01-11T00:49:36.026Z,5.80
2023-01-11T00:52:07.296Z,5.80
2023-01-11T00:54:35.087Z,5.80
2023-01-11T00:57:01.955Z,5.80
2023-01-11T00:59:31.272Z,5.80
2023-01-11T01:01:58.139Z,5.80
2023-01-11T01:04:28.113Z,5.80
2023-01-11T01:06:55.100Z,5.80
2023-01-11T01:09:22.362Z,5.80
2023-01-11T01:11:49.215Z,5.80
2023-01-11T01:14:29.762Z,5.80
2023-01-11T01:17:02.422Z,5.80
2023-01-11T01:19:31.327Z,5.80
2023-01-11T01:22:03.309Z,5.80
2023-01-11T01:24:30.985Z,5.80
2023-01-11T01:27:00.607Z,5.80
2023-01-11T01:29:27.588Z,5.80
2023-01-11T01:31:54.476Z,5.80
2023-01-11T01:34:21.358Z,5.80
2023-01-11T01:36:50.595Z,5.80
2023-01-11T01:39:17.572Z,5.80
2023-01-11T01:41:44.619Z,5.80
2023-01-11T01:44:48.941Z,5.80
2023-01-11T01:47:18.905Z,5.90
2023-01-11T01:49:47.027Z,5.90
2023-01-11T01:52:16.731Z,5.90
2023-01-11T01:54:46.843Z,5.90
2023-01-11T01:57:21.313Z,5.90
2023-01-11T01:59:52.006Z,6.00
2023-01-11T02:02:24.010Z,6.00
2023-01-11T02:04:57.686Z,6.00
2023-01-11T02:07:36.244Z,6.00
2023-01-11T02:10:08.637Z,6.10
2023-01-11T02:12:43.231Z,6.10
2023-01-11T02:15:12.080Z,6.10
2023-01-11T02:17:41.444Z,6.10
2023-01-11T02:20:30.412Z,6.20
2023-01-11T02:23:12.765Z,6.20
2023-01-11T02:25:59.900Z,6.20
2023-01-11T02:28:46.754Z,6.20
2023-01-11T02:31:19.706Z,6.20
2023-01-11T02:33:52.569Z,6.20
2023-01-11T02:36:33.330Z,6.20
2023-01-11T02:39:11.340Z,6.20
2023-01-11T02:42:14.951Z,6.20
2023-01-11T02:45:01.430Z,6.30
2023-01-11T02:47:59.339Z,6.30
2023-01-11T02:50:26.159Z,6.30
2023-01-11T02:53:09.581Z,6.30
2023-01-11T02:55:44.331Z,6.30
2023-01-11T02:58:16.728Z,6.30
2023-01-11T03:00:46.537Z,6.30
2023-01-11T03:03:21.790Z,6.30
2023-01-11T03:06:12.770Z,6.30
2023-01-11T03:08:45.968Z,6.30
2023-01-11T03:11:40.735Z,6.30
2023-01-11T03:14:10.393Z,6.30
2023-01-11T03:16:47.780Z,6.30
2023-01-11T03:19:29.175Z,6.30
2023-01-11T03:22:19.685Z,6.30
2023-01-11T03:24:54.770Z,6.40
2023-01-11T03:27:35.951Z,6.40
2023-01-11T03:30:08.863Z,6.30
2023-01-11T03:32:53.113Z,6.40
2023-01-11T03:35:52.732Z,6.40
2023-01-11T03:38:40.157Z,6.40
2023-01-11T03:41:21.192Z,6.40
2023-01-11T03:43:51.736Z,6.40
2023-01-11T03:46:34.010Z,6.40
2023-01-11T03:49:08.125Z,6.40
2023-01-11T03:51:42.159Z,6.40
2023-01-11T03:54:13.615Z,6.40
2023-01-11T03:56:49.521Z,6.40
2023-01-11T03:59:16.467Z,6.50
2023-01-11T04:01:44.110Z,6.40
2023-01-11T04:04:11.054Z,6.40
2023-01-11T04:06:39.396Z,6.40
2023-01-11T04:09:06.789Z,6.40
2023-01-11T04:11:33.646Z,6.50
2023-01-11T04:14:05.127Z,6.50
2023-01-11T04:16:32.253Z,6.50
2023-01-11T04:19:02.848Z,6.50
2023-01-11T04:21:34.133Z,6.50
2023-01-11T04:24:00.988Z,6.50
2023-01-11T04:26:30.358Z,6.50
2023-01-11T04:28:57.275Z,6.50
2023-01-11T04:31:24.253Z,6.50
2023-01-11T04:33:51.142Z,6.50
2023-01-11T04:40:36.387Z,6.60
2023-01-11T04:43:05.757Z,6.50
2023-01-11T04:45:35.329Z,6.50
2023-01-11T04:48:02.254Z,6.60
2023-01-11T04:50:31.489Z,6.60
2023-01-11T04:53:00.897Z,6.60
2023-01-11T04:55:32.170Z,6.60
2023-01-11T04:57:59.072Z,6.60
2023-01-11T05:00:28.145Z,6.60
2023-01-11T05:02:58.547Z,6.60
2023-01-11T05:05:25.393Z,6.70
2023-01-11T05:07:52.248Z,6.70
2023-01-11T05:10:21.011Z,6.70
2023-01-11T05:12:48.110Z,6.70
2023-01-11T05:15:15.031Z,6.70
2023-01-11T05:17:41.927Z,6.60
2023-01-11T05:20:09.671Z,6.70
2023-01-11T05:22:36.546Z,6.70
2023-01-11T05:25:03.589Z,6.70
2023-01-11T05:27:32.563Z,6.70
2023-01-11T05:29:59.386Z,6.70
2023-01-11T05:32:26.501Z,6.70
2023-01-11T05:34:53.293Z,6.70
2023-01-11T05:37:20.120Z,6.70
2023-01-11T05:39:49.684Z,6.70
2023-01-11T05:42:16.713Z,6.70
2023-01-11T05:45:02.043Z,6.80
2023-01-11T05:47:28.923Z,6.80
2023-01-11T05:49:57.975Z,6.80
2023-01-11T05:52:27.277Z,6.80
2023-01-11T05:54:56.608Z,6.80
2023-01-11T05:57:23.427Z,6.80
2023-01-11T05:59:52.443Z,6.80
2023-01-11T06:02:21.933Z,6.90
2023-01-11T06:04:48.991Z,6.80
2023-01-11T06:07:16.058Z,6.80
2023-01-11T06:09:45.146Z,6.80
2023-01-11T06:12:12.014Z,6.80
2023-01-11T06:14:41.342Z,6.80
2023-01-11T06:17:10.393Z,6.80
2023-01-11T06:19:37.402Z,6.80
2023-01-11T06:22:04.252Z,6.80
2023-01-11T06:24:33.360Z,6.80
2023-01-11T06:27:00.239Z,6.90
2023-01-11T06:29:27.103Z,6.90
2023-01-11T06:31:53.936Z,6.90
2023-01-11T06:34:20.798Z,6.90
2023-01-11T06:36:52.169Z,6.90
2023-01-11T06:39:21.471Z,6.90
2023-01-11T06:41:48.395Z,6.90
2023-01-11T06:44:17.685Z,6.90
2023-01-11T06:46:44.746Z,6.90
2023-01-11T06:49:11.798Z,6.90
2023-01-11T06:51:40.833Z,6.90
2023-01-11T06:54:07.902Z,6.90
2023-01-11T06:56:36.917Z,6.90
2023-01-11T06:59:03.833Z,7.00
2023-01-11T07:01:33.116Z,6.90
2023-01-11T07:04:02.548Z,6.90
2023-01-11T07:06:35.412Z,6.90
2023-01-11T07:09:02.532Z,6.90
2023-01-11T07:11:31.586Z,6.90
2023-01-11T07:13:58.423Z,6.90
2023-01-11T07:16:27.586Z,6.90
2023-01-11T07:18:54.567Z,6.90
2023-01-11T07:21:21.538Z,6.90
2023-01-11T07:23:48.921Z,6.90
2023-01-11T07:26:17.361Z,6.90
2023-01-11T07:28:46.993Z,6.90
2023-01-11T07:31:13.909Z,6.90
2023-01-11T07:33:40.799Z,6.90
2023-01-11T07:36:10.417Z,6.90
2023-01-11T07:38:39.964Z,6.80
2023-01-11T07:41:26.788Z,6.90
2023-01-11T07:43:53.669Z,6.90
2023-01-11T07:46:20.738Z,6.90
2023-01-11T07:48:47.684Z,6.90
2023-01-11T07:51:16.648Z,6.90
2023-01-11T07:53:43.555Z,7.00
2023-01-11T07:56:13.561Z,7.00
2023-01-11T07:58:40.442Z,7.00
2023-01-11T08:01:09.737Z,7.10
2023-01-11T08:03:36.707Z,7.10
2023-01-11T08:06:03.791Z,7.10
2023-01-11T08:08:32.832Z,7.10
2023-01-11T08:11:20.749Z,7.10
2023-01-11T08:14:08.864Z,7.10
2023-01-11T08:16:38.872Z,7.20
2023-01-11T08:19:05.942Z,7.20
2023-01-11T08:21:37.517Z,7.20
2023-01-11T08:24:04.601Z,7.20
2023-01-11T08:26:31.445Z,7.20
2023-01-11T08:28:58.312Z,7.20
2023-01-11T08:31:26.151Z,7.20
2023-01-11T08:33:55.631Z,7.30
2023-01-11T08:36:28.200Z,7.30
2023-01-11T08:38:56.587Z,7.40
2023-01-11T08:41:27.123Z,7.40
2023-01-11T08:43:56.072Z,7.40
2023-01-11T08:46:22.999Z,7.50
2023-01-11T08:48:50.269Z,7.50
2023-01-11T08:51:18.177Z,7.50
2023-01-11T08:53:45.425Z,7.60
2023-01-11T08:56:12.647Z,7.60
2023-01-11T08:58:39.638Z,7.60
2023-01-11T09:01:09.637Z,7.70
2023-01-11T09:03:36.612Z,7.70
2023-01-11T09:06:05.893Z,7.70
2023-01-11T09:08:33.117Z,7.70
2023-01-11T09:11:00.733Z,7.70
2023-01-11T09:13:27.709Z,7.80
2023-01-11T09:15:57.682Z,7.80
2023-01-11T09:18:29.406Z,7.80
2023-01-11T09:20:58.750Z,7.80
2023-01-11T09:23:27.793Z,7.80
2023-01-11T09:25:55.908Z,7.80
2023-01-11T09:28:22.807Z,7.80
2023-01-11T09:30:53.583Z,7.80
2023-01-11T09:33:20.547Z,7.80
2023-01-11T09:35:47.353Z,7.70
2023-01-11T09:38:16.900Z,7.70
2023-01-11T09:41:08.329Z,7.70
2023-01-11T09:43:43.876Z,7.70
2023-01-11T09:46:14.089Z,7.70
2023-01-11T09:48:59.447Z,7.70
2023-01-11T09:51:52.226Z,7.70
2023-01-11T09:54:27.063Z,7.70
2023-01-11T09:57:15.637Z,7.70
2023-01-11T10:00:10.504Z,7.70
2023-01-11T10:02:53.201Z,7.70
2023-01-11T10:05:38.382Z,7.70
2023-01-11T10:18:33.759Z,7.70
2023-01-11T10:19:34.545Z,7.70
2023-01-11T10:22:27.886Z,7.70
2023-01-11T10:25:16.794Z,7.70
2023-01-11T10:27:56.809Z,7.80
2023-01-11T10:30:37.508Z,7.80
2023-01-11T10:33:16.134Z,7.80
2023-01-11T10:36:18.645Z,7.80
2023-01-11T10:39:49.846Z,7.90
2023-01-11T10:42:22.156Z,7.90
2023-01-11T10:45:05.480Z,7.90
2023-01-11T10:47:41.241Z,7.90
2023-01-11T10:50:22.192Z,7.90
2023-01-11T10:53:17.071Z,7.90
2023-01-11T10:55:51.561Z,7.90
2023-01-11T10:58:23.618Z,7.90
2023-01-11T11:01:08.664Z,8.00
2023-01-11T11:03:41.668Z,8.00
2023-01-11T11:06:55.531Z,8.00
2023-01-11T11:09:50.391Z,8.00
2023-01-11T11:12:30.553Z,8.00
2023-01-11T11:15:04.163Z,8.00
2023-01-11T11:21:56.554Z,8.00
2023-01-11T11:24:44.452Z,8.00
2023-01-11T11:27:37.369Z,8.10
2023-01-11T11:30:05.048Z,8.10
2023-01-11T11:32:37.817Z,8.10
2023-01-11T11:35:07.766Z,8.10
2023-01-11T11:37:38.563Z,8.10
2023-01-11T11:40:06.000Z,8.10
2023-01-11T11:42:32.944Z,8.10
2023-01-11T11:45:12.025Z,8.10
2023-01-11T11:47:38.926Z,8.10
2023-01-11T11:50:42.402Z,8.10
2023-01-11T11:53:26.466Z,8.10
2023-01-11T11:55:54.522Z,8.10
2023-01-11T11:58:26.035Z,8.10
2023-01-11T12:00:53.566Z,8.20
2023-01-11T12:03:33.708Z,8.20
2023-01-11T12:06:07.364Z,8.20
2023-01-11T12:08:35.980Z,8.30
2023-01-11T12:11:07.766Z,8.30
2023-01-11T12:13:42.372Z,8.30
2023-01-11T12:16:21.655Z,8.30
2023-01-11T12:18:48.984Z,8.30
2023-01-11T12:21:16.052Z,8.30
2023-01-11T12:23:43.146Z,8.40
2023-01-11T12:26:27.342Z,8.40
2023-01-11T12:29:16.890Z,8.40
2023-01-11T12:32:02.414Z,8.40
2023-01-11T12:34:38.049Z,8.40
2023-01-11T12:37:26.390Z,8.50
2023-01-11T12:39:59.045Z,8.40
2023-01-11T12:42:58.554Z,8.40
2023-01-11T12:46:06.380Z,8.50
2023-01-11T12:48:44.053Z,8.50
2023-01-11T12:51:34.634Z,8.50
2023-01-11T12:54:42.442Z,8.50
2023-01-11T12:57:25.598Z,8.50
2023-01-11T13:00:13.504Z,8.50
2023-01-11T13:02:56.252Z,8.50
2023-01-11T13:05:47.437Z,8.50
2023-01-11T13:08:55.628Z,8.50
2023-01-11T13:11:42.707Z,8.50
2023-01-11T13:14:19.722Z,8.50
2023-01-11T13:17:02.711Z,8.50
2023-01-11T13:19:58.788Z,8.50
2023-01-11T13:22:33.034Z,8.50
2023-01-11T13:25:02.804Z,8.50
2023-01-11T13:31:18.854Z,8.50
2023-01-11T13:33:52.839Z,8.50
2023-01-11T13:36:30.359Z,8.50
2023-01-11T13:39:28.579Z,8.50
2023-01-11T13:42:08.716Z,8.50
2023-01-11T13:44:42.426Z,8.50
2023-01-11T13:47:21.411Z,8.60
2023-01-11T13:49:58.932Z,8.60
2023-01-11T13:52:44.411Z,8.60
2023-01-11T13:55:34.937Z,8.60
2023-01-11T13:58:05.823Z,8.60
2023-01-11T14:00:41.118Z,8.60
2023-01-11T14:03:26.791Z,8.60
2023-01-11T14:06:42.707Z,8.60
2023-01-11T14:09:57.645Z,8.60
2023-01-11T14:13:08.703Z,8.60
2023-01-11T14:16:09.005Z,8.60
2023-01-11T14:18:51.739Z,8.60
2023-01-11T14:21:30.218Z,8.60
2023-01-11T14:23:58.289Z,8.60
2023-01-11T14:26:53.287Z,8.60
2023-01-11T14:29:58.971Z,8.60
2023-01-11T14:32:53.385Z,8.60
2023-01-11T14:35:46.855Z,8.60
2023-01-11T14:38:38.858Z,8.60
2023-01-11T14:41:11.452Z,8.60
2023-01-11T14:43:44.803Z,8.60
2023-01-11T14:46:23.483Z,8.60
2023-01-11T14:48:56.333Z,8.60
2023-01-11T14:51:34.131Z,8.60
2023-01-11T14:54:07.922Z,8.70
2023-01-11T14:56:35.922Z,8.70
2023-01-11T14:59:06.331Z,8.70
2023-01-11T15:02:03.852Z,8.70
2023-01-11T15:04:52.238Z,8.70
2023-01-11T15:07:37.539Z,8.70
2023-01-11T15:10:29.506Z,8.70
2023-01-11T15:13:00.286Z,8.70
2023-01-11T15:15:51.611Z,8.70
2023-01-11T15:18:22.715Z,8.70
2023-01-11T15:20:53.889Z,8.70
2023-01-11T15:23:21.050Z,8.70
2023-01-11T15:25:59.477Z,8.70
2023-01-11T15:28:35.478Z,8.70
2023-01-11T15:31:06.356Z,8.70
2023-01-11T15:33:48.088Z,8.70
2023-01-11T15:36:15.127Z,8.70
2023-01-11T15:39:03.016Z,8.70
2023-01-11T15:42:05.903Z,8.70
2023-01-11T15:45:00.638Z,8.70
2023-01-11T15:47:33.451Z,8.70
2023-01-11T15:50:12.406Z,8.80
2023-01-11T15:53:02.567Z,8.70
2023-01-11T15:56:00.408Z,8.80
2023-01-11T15:58:39.247Z,8.80
2023-01-11T16:01:21.861Z,8.80
2023-01-11T16:04:10.696Z,8.80
2023-01-11T16:06:49.768Z,8.80
2023-01-11T16:09:37.921Z,8.80
2023-01-11T16:12:39.829Z,8.80
2023-01-11T16:15:44.435Z,8.80
2023-01-11T16:18:26.564Z,8.80
2023-01-11T16:21:31.443Z,8.80
2023-01-11T16:23:58.556Z,8.80
2023-01-11T16:26:25.918Z,8.80
2023-01-11T16:28:58.605Z,8.80
2023-01-11T16:31:46.243Z,8.80
2023-01-11T16:34:20.503Z,8.80
2023-01-11T16:36:49.946Z,8.90
2023-01-11T16:39:22.323Z,8.90
2023-01-11T16:41:52.915Z,8.90
2023-01-11T16:44:55.563Z,8.90
2023-01-11T16:47:22.697Z,8.90
2023-01-11T16:50:10.260Z,8.90
2023-01-11T16:52:48.534Z,8.90
2023-01-11T16:55:22.417Z,8.90
2023-01-11T16:57:53.838Z,8.90
2023-01-11T17:00:35.466Z,8.90
2023-01-11T17:03:15.142Z,9.00
2023-01-11T17:05:42.145Z,9.00
2023-01-11T17:08:36.199Z,9.00
2023-01-11T17:11:13.498Z,9.00
2023-01-11T17:13:54.924Z,9.00
2023-01-11T17:16:31.963Z,9.00
2023-01-11T17:19:06.549Z,9.00
2023-01-11T17:21:34.004Z,9.00
2023-01-11T17:24:05.533Z,9.00
2023-01-11T17:26:42.748Z,9.10
2023-01-11T17:29:16.179Z,9.00
2023-01-11T17:31:43.169Z,9.10
2023-01-11T17:34:24.323Z,9.10
2023-01-11T17:36:51.611Z,9.10
2023-01-11T17:39:37.450Z,9.10
2023-01-11T17:42:25.096Z,9.10
2023-01-11T17:45:12.764Z,9.10
2023-01-11T17:47:48.887Z,9.10
2023-01-11T17:50:23.677Z,9.10
2023-01-11T17:52:57.633Z,9.10
2023-01-11T17:55:27.102Z,9.10
2023-01-11T17:58:18.033Z,9.10
2023-01-11T18:01:09.166Z,9.10
2023-01-11T18:03:49.746Z,9.10
2023-01-11T18:06:35.008Z,9.10
2023-01-11T18:09:07.069Z,9.10
2023-01-11T18:11:41.705Z,9.10
2023-01-11T18:14:19.921Z,9.00
2023-01-11T18:17:06.868Z,9.00
2023-01-11T18:19:42.147Z,9.00
2023-01-11T18:22:30.557Z,9.00
2023-01-11T18:24:59.613Z,9.00
2023-01-11T18:27:32.342Z,9.00
2023-01-11T18:30:06.590Z,9.00
2023-01-11T18:32:42.207Z,9.00
2023-01-11T18:35:19.021Z,9.00
2023-01-11T18:37:46.627Z,9.00
2023-01-11T18:40:15.152Z,9.00
2023-01-11T18:42:43.615Z,9.00
2023-01-11T18:45:11.367Z,9.00
2023-01-11T18:47:38.274Z,8.90
2023-01-11T18:50:09.380Z,8.90
2023-01-11T18:52:37.099Z,8.90
2023-01-11T18:55:04.635Z,8.90
2023-01-11T18:57:31.937Z,8.90
2023-01-11T18:59:58.808Z,8.90
2023-01-11T19:02:36.583Z,8.90
2023-01-11T19:05:04.077Z,8.90
2023-01-11T19:07:30.993Z,8.80
2023-01-11T19:09:59.341Z,8.80
2023-01-11T19:12:27.116Z,8.80
2023-01-11T19:14:54.104Z,8.80
2023-01-11T19:17:23.303Z,8.80
2023-01-11T19:19:50.196Z,8.80
2023-01-11T19:22:21.950Z,8.80
2023-01-11T19:24:51.652Z,8.80
2023-01-11T19:27:19.053Z,8.80
2023-01-11T19:29:48.266Z,8.80
2023-01-11T19:32:18.491Z,8.80
2023-01-11T19:34:45.584Z,8.80
2023-01-11T19:37:14.673Z,8.80
2023-01-11T19:39:42.286Z,8.80
2023-01-11T19:42:09.348Z,8.70
2023-01-11T19:44:41.227Z,8.70
2023-01-11T19:47:13.443Z,8.70
2023-01-11T19:49:43.568Z,8.70
2023-01-11T19:52:18.779Z,8.70
2023-01-11T19:54:46.837Z,8.70
2023-01-11T19:57:17.909Z,8.60
2023-01-11T19:59:44.910Z,8.60
2023-01-11T20:02:21.208Z,8.60
2023-01-11T20:04:48.735Z,8.60
2023-01-11T20:07:16.242Z,8.60
2023-01-11T20:09:43.514Z,8.60
2023-01-11T20:12:15.705Z,8.50
2023-01-11T20:14:47.199Z,8.50
2023-01-11T20:17:21.083Z,8.50
2023-01-11T20:19:54.349Z,8.50
2023-01-11T20:22:24.833Z,8.50
2023-01-11T20:24:55.999Z,8.50
2023-01-11T20:27:23.165Z,8.40
2023-01-11T20:29:50.228Z,8.40
2023-01-11T20:32:40.951Z,8.40
2023-01-11T20:35:11.494Z,8.40
2023-01-11T20:37:38.819Z,8.40
2023-01-11T20:40:11.854Z,8.40
2023-01-11T20:42:42.587Z,8.40
2023-01-11T20:45:12.073Z,8.30
2023-01-11T20:47:39.090Z,8.30
2023-01-11T20:50:06.413Z,8.30
2023-01-11T20:52:33.644Z,8.30
2023-01-11T20:55:02.704Z,8.30
2023-01-11T20:57:29.693Z,8.30
2023-01-11T20:59:56.730Z,8.30
2023-01-11T21:02:23.671Z,8.30
2023-01-11T21:04:50.606Z,8.30
2023-01-11T21:07:17.483Z,8.20
2023-01-11T21:09:44.339Z,8.20
2023-01-11T21:12:11.213Z,8.20
2023-01-11T21:14:40.608Z,8.10
2023-01-11T21:17:09.772Z,8.10
2023-01-11T21:19:36.747Z,8.10
2023-01-11T21:22:06.054Z,8.10
2023-01-11T21:24:32.889Z,8.10
2023-01-11T21:26:59.843Z,8.00
2023-01-11T21:29:28.918Z,8.10
2023-01-11T21:31:58.327Z,8.00
2023-01-11T21:34:25.259Z,8.00
2023-01-11T21:36:52.181Z,8.00
2023-01-11T21:39:23.622Z,8.00
2023-01-11T21:41:59.773Z,8.00
2023-01-11T21:44:35.232Z,7.90
2023-01-11T21:47:04.642Z,7.90
2023-01-11T21:49:32.129Z,7.90
2023-01-11T21:51:59.333Z,7.90
2023-01-11T21:54:26.317Z,7.80
2023-01-11T21:56:55.486Z,7.80
2023-01-11T21:59:22.502Z,7.80
2023-01-11T22:01:51.503Z,7.80
2023-01-11T22:04:21.284Z,7.80
2023-01-11T22:06:54.294Z,7.80
2023-01-11T22:09:22.721Z,7.80
2023-01-11T22:11:51.011Z,7.70
2023-01-11T22:14:23.034Z,7.70
2023-01-11T22:16:50.142Z,7.70
2023-01-11T22:19:17.297Z,7.70
2023-01-11T22:21:44.432Z,7.70
2023-01-11T22:24:14.412Z,7.60
2023-01-11T22:26:41.566Z,7.60
2023-01-11T22:29:12.242Z,7.60
2023-01-11T22:31:45.324Z,7.60
2023-01-11T22:34:13.786Z,7.60
2023-01-11T22:36:41.682Z,7.60
2023-01-11T22:39:08.886Z,7.50
2023-01-11T22:41:40.840Z,7.50
2023-01-11T22:44:09.280Z,7.50
2023-01-11T22:46:36.924Z,7.50
2023-01-11T22:49:06.071Z,7.40
2023-01-11T22:51:35.799Z,7.40
2023-01-11T22:54:07.655Z,7.40
2023-01-11T22:56:39.140Z,7.40
2023-01-11T22:59:06.361Z,7.30
2023-01-11T23:01:39.047Z,7.30
2023-01-11T23:04:08.027Z,7.30
2023-01-11T23:06:39.920Z,7.30
2023-01-11T23:09:10.444Z,7.30
2023-01-11T23:11:57.333Z,7.30
2023-01-11T23:14:32.725Z,7.20
2023-01-11T23:17:10.459Z,7.20
2023-01-11T23:19:39.671Z,7.20
2023-01-11T23:22:07.654Z,7.10
2023-01-11T23:24:36.939Z,7.10
2023-01-11T23:27:04.327Z,7.10
2023-01-11T23:29:31.213Z,7.10
2023-01-11T23:31:58.310Z,7.10
2023-01-11T23:34:25.227Z,7.10
2023-01-11T23:36:52.114Z,7.10
2023-01-11T23:39:19.214Z,7.10
2023-01-11T23:42:04.452Z,7.00
2023-01-11T23:44:33.699Z,7.00
2023-01-11T23:47:18.938Z,7.00
2023-01-11T23:49:49.549Z,7.00
2023-01-11T23:52:21.939Z,7.00
2023-01-11T23:54:49.883Z,7.00
2023-01-11T23:57:20.897Z,7.00
2023-01-11T23:59:47.749Z,6.90
